sensor_id;sensor_type;location;lat;lon;timestamp;pressure;altitude;pressure_sealevel;temperature;humidity
67842;BME280;54642;59.126;37.876;2023-03-26T00:00:41;98510.56;;;3.75;70.56
67842;BME280;54642;59.126;37.876;2023-03-26T00:03:12;98511.44;;;3.74;70.44
67842;BME280;54642;59.126;37.876;2023-03-26T00:05:39;98483.28;;;3.57;70.34
67842;BME280;54642;59.126;37.876;2023-03-26T00:08:06;98535.31;;;3.87;70.33
67842;BME280;54642;59.126;37.876;2023-03-26T00:10:36;98468.78;;;3.52;70.48
67842;BME280;54642;59.126;37.876;2023-03-26T00:13:03;98484.97;;;3.63;70.24
67842;BME280;54642;59.126;37.876;2023-03-26T00:15:30;98496.94;;;3.66;69.86
67842;BME280;54642;59.126;37.876;2023-03-26T00:17:57;98500.34;;;3.66;70.17
67842;BME280;54642;59.126;37.876;2023-03-26T00:20:28;98538.75;;;3.81;70.27
67842;BME280;54642;59.126;37.876;2023-03-26T00:22:55;98566.91;;;3.89;70.45
67842;BME280;54642;59.126;37.876;2023-03-26T00:25:22;98550.69;;;3.86;70.41
67842;BME280;54642;59.126;37.876;2023-03-26T00:27:50;98547.31;;;3.74;70.29
67842;BME280;54642;59.126;37.876;2023-03-26T00:30:17;98556.69;;;3.75;70.64
67842;BME280;54642;59.126;37.876;2023-03-26T00:32:43;98559.28;;;3.72;70.35
67842;BME280;54642;59.126;37.876;2023-03-26T00:35:09;98555.88;;;3.64;70.50
67842;BME280;54642;59.126;37.876;2023-03-26T00:37:36;98583.19;;;3.67;70.67
67842;BME280;54642;59.126;37.876;2023-03-26T00:40:02;98570.38;;;3.57;70.42
67842;BME280;54642;59.126;37.876;2023-03-26T00:42:33;98572.09;;;3.49;70.64
67842;BME280;54642;59.126;37.876;2023-03-26T00:44:58;98575.53;;;3.42;70.86
67842;BME280;54642;59.126;37.876;2023-03-26T00:47:26;98580.63;;;3.50;70.78
67842;BME280;54642;59.126;37.876;2023-03-26T00:49:53;98526.88;;;3.10;71.19
67842;BME280;54642;59.126;37.876;2023-03-26T00:52:19;98523.47;;;3.14;71.01
67842;BME280;54642;59.126;37.876;2023-03-26T00:54:46;98583.22;;;3.54;71.00
67842;BME280;54642;59.126;37.876;2023-03-26T00:57:13;98582.34;;;3.55;70.98
67842;BME280;54642;59.126;37.876;2023-03-26T00:59:39;98584.06;;;3.53;70.77
67842;BME280;54642;59.126;37.876;2023-03-26T01:02:08;98585.75;;;3.60;70.63
67842;BME280;54642;59.126;37.876;2023-03-26T01:04:36;98585.75;;;3.57;70.52
67842;BME280;54642;59.126;37.876;2023-03-26T01:07:11;98580.63;;;3.56;70.40
67842;BME280;54642;59.126;37.876;2023-03-26T01:09:40;98571.25;;;3.53;70.73
67842;BME280;54642;59.126;37.876;2023-03-26T01:12:21;98532.84;;;3.26;70.37
67842;BME280;54642;59.126;37.876;2023-03-26T01:14:49;98583.22;;;3.53;70.79
67842;BME280;54642;59.126;37.876;2023-03-26T01:17:16;98586.63;;;3.58;70.60
67842;BME280;54642;59.126;37.876;2023-03-26T01:19:56;98594.31;;;3.58;70.66
67842;BME280;54642;59.126;37.876;2023-03-26T01:22:33;98561.00;;;3.35;70.53
67842;BME280;54642;59.126;37.876;2023-03-26T01:25:01;98597.69;;;3.55;70.93
67842;BME280;54642;59.126;37.876;2023-03-26T01:27:49;98545.66;;;3.22;70.53
67842;BME280;54642;59.126;37.876;2023-03-26T01:40:56;98607.09;;;3.36;70.64
67842;BME280;54642;59.126;37.876;2023-03-26T01:46:15;98607.09;;;3.29;70.88
67842;BME280;54642;59.126;37.876;2023-03-26T01:48:44;98613.91;;;3.28;70.70
67842;BME280;54642;59.126;37.876;2023-03-26T01:51:12;98568.66;;;2.96;70.80
67842;BME280;54642;59.126;37.876;2023-03-26T01:53:45;98561.84;;;2.95;70.86
67842;BME280;54642;59.126;37.876;2023-03-26T02:01:35;98607.09;;;3.13;70.98
67842;BME280;54642;59.126;37.876;2023-03-26T02:07:01;98608.75;;;3.13;70.73
67842;BME280;54642;59.126;37.876;2023-03-26T02:09:38;98611.31;;;3.13;71.19
67842;BME280;54642;59.126;37.876;2023-03-26T02:12:07;98599.38;;;3.10;71.04
67842;BME280;54642;59.126;37.876;2023-03-26T02:14:34;98555.81;;;2.82;71.18
67842;BME280;54642;59.126;37.876;2023-03-26T02:17:00;98599.38;;;3.18;71.16
67842;BME280;54642;59.126;37.876;2023-03-26T02:19:26;98617.28;;;3.15;71.11
67842;BME280;54642;59.126;37.876;2023-03-26T02:21:52;98602.81;;;3.14;70.89
67842;BME280;54642;59.126;37.876;2023-03-26T02:24:25;98602.78;;;3.09;71.02
67842;BME280;54642;59.126;37.876;2023-03-26T02:26:54;98610.50;;;3.15;71.02
67842;BME280;54642;59.126;37.876;2023-03-26T02:29:23;98550.72;;;2.79;70.94
67842;BME280;54642;59.126;37.876;2023-03-26T02:31:52;98597.69;;;3.04;71.05
67842;BME280;54642;59.126;37.876;2023-03-26T02:34:17;98619.00;;;3.13;71.17
67842;BME280;54642;59.126;37.876;2023-03-26T02:36:52;98602.78;;;3.04;71.06
67842;BME280;54642;59.126;37.876;2023-03-26T02:39:18;98601.09;;;3.10;71.09
67842;BME280;54642;59.126;37.876;2023-03-26T02:41:52;98600.25;;;3.15;71.13
67842;BME280;54642;59.126;37.876;2023-03-26T02:44:19;98605.38;;;3.17;71.08
67842;BME280;54642;59.126;37.876;2023-03-26T02:46:57;98561.81;;;2.92;70.83
67842;BME280;54642;59.126;37.876;2023-03-26T02:49:42;98602.81;;;3.23;70.92
67842;BME280;54642;59.126;37.876;2023-03-26T02:52:11;98611.34;;;3.25;70.97
67842;BME280;54642;59.126;37.876;2023-03-26T02:54:37;98563.53;;;2.96;70.94
67842;BME280;54642;59.126;37.876;2023-03-26T02:57:06;98612.19;;;3.27;71.03
67842;BME280;54642;59.126;37.876;2023-03-26T02:59:49;98613.06;;;3.28;70.96
67842;BME280;54642;59.126;37.876;2023-03-26T03:02:38;98612.22;;;3.24;70.75
67842;BME280;54642;59.126;37.876;2023-03-26T03:05:36;98574.63;;;3.03;70.92
67842;BME280;54642;59.126;37.876;2023-03-26T03:08:10;98614.78;;;3.26;70.91
67842;BME280;54642;59.126;37.876;2023-03-26T03:10:42;98614.75;;;3.27;71.17
67842;BME280;54642;59.126;37.876;2023-03-26T03:13:16;98574.63;;;3.01;70.77
67842;BME280;54642;59.126;37.876;2023-03-26T03:15:42;98616.47;;;3.23;70.86
67842;BME280;54642;59.126;37.876;2023-03-26T03:18:08;98624.16;;;3.20;71.00
67842;BME280;54642;59.126;37.876;2023-03-26T03:20:34;98619.88;;;3.19;70.95
67842;BME280;54642;59.126;37.876;2023-03-26T03:23:01;98631.00;;;3.26;70.94
67842;BME280;54642;59.126;37.876;2023-03-26T03:25:28;98636.09;;;3.23;70.71
67842;BME280;54642;59.126;37.876;2023-03-26T03:27:54;98633.53;;;3.24;70.71
67842;BME280;54642;59.126;37.876;2023-03-26T03:30:19;98595.09;;;2.94;71.05
67842;BME280;54642;59.126;37.876;2023-03-26T03:33:08;98644.63;;;3.17;71.14
67842;BME280;54642;59.126;37.876;2023-03-26T03:35:34;98646.34;;;3.17;71.07
67842;BME280;54642;59.126;37.876;2023-03-26T03:38:02;98631.81;;;3.08;71.14
67842;BME280;54642;59.126;37.876;2023-03-26T03:40:34;98641.19;;;3.14;70.93
67842;BME280;54642;59.126;37.876;2023-03-26T03:43:00;98644.63;;;3.19;70.98
67842;BME280;54642;59.126;37.876;2023-03-26T03:45:35;98654.88;;;3.20;71.09
67842;BME280;54642;59.126;37.876;2023-03-26T03:48:40;98651.44;;;3.14;71.07
67842;BME280;54642;59.126;37.876;2023-03-26T03:51:07;98662.50;;;3.11;71.12
67842;BME280;54642;59.126;37.876;2023-03-26T03:53:46;98671.03;;;3.02;71.00
67842;BME280;54642;59.126;37.876;2023-03-26T03:56:15;98676.13;;;2.98;71.46
67842;BME280;54642;59.126;37.876;2023-03-26T03:59:17;98649.66;;;2.91;71.32
67842;BME280;54642;59.126;37.876;2023-03-26T04:01:43;98648.84;;;2.94;71.47
67842;BME280;54642;59.126;37.876;2023-03-26T04:04:29;98647.16;;;2.99;71.39
67842;BME280;54642;59.126;37.876;2023-03-26T04:07:03;98652.28;;;3.08;71.26
67842;BME280;54642;59.126;37.876;2023-03-26T04:09:53;98667.66;;;3.17;71.13
67842;BME280;54642;59.126;37.876;2023-03-26T04:12:21;98661.72;;;3.18;71.25
67842;BME280;54642;59.126;37.876;2023-03-26T04:15:01;98672.78;;;3.19;71.48
67842;BME280;54642;59.126;37.876;2023-03-26T04:17:27;98657.44;;;3.19;71.44
67842;BME280;54642;59.126;37.876;2023-03-26T04:19:55;98662.53;;;3.16;71.43
67842;BME280;54642;59.126;37.876;2023-03-26T04:22:26;98661.69;;;3.23;71.08
67842;BME280;54642;59.126;37.876;2023-03-26T04:25:00;98601.91;;;2.90;71.02
67842;BME280;54642;59.126;37.876;2023-03-26T04:27:36;98652.31;;;3.23;70.88
67842;BME280;54642;59.126;37.876;2023-03-26T04:30:35;98638.66;;;3.18;70.84
67842;BME280;54642;59.126;37.876;2023-03-26T04:33:22;98655.72;;;3.19;70.98
67842;BME280;54642;59.126;37.876;2023-03-26T04:35:50;98657.38;;;3.11;71.22
67842;BME280;54642;59.126;37.876;2023-03-26T04:38:18;98650.56;;;3.01;71.15
67842;BME280;54642;59.126;37.876;2023-03-26T04:40:47;98659.97;;;3.07;71.38
67842;BME280;54642;59.126;37.876;2023-03-26T04:43:52;98623.19;;;2.74;71.20
67842;BME280;54642;59.126;37.876;2023-03-26T04:46:36;98658.22;;;2.96;71.24
67842;BME280;54642;59.126;37.876;2023-03-26T04:49:09;98662.50;;;2.97;71.18
67842;BME280;54642;59.126;37.876;2023-03-26T04:51:36;98647.97;;;2.90;71.32
67842;BME280;54642;59.126;37.876;2023-03-26T04:54:09;98661.66;;;3.01;71.29
67842;BME280;54642;59.126;37.876;2023-03-26T04:57:02;98666.78;;;3.04;71.24
67842;BME280;54642;59.126;37.876;2023-03-26T04:59:35;98668.50;;;3.13;70.98
67842;BME280;54642;59.126;37.876;2023-03-26T05:02:06;98666.78;;;3.11;71.36
67842;BME280;54642;59.126;37.876;2023-03-26T05:04:53;98670.22;;;3.10;71.54
67842;BME280;54642;59.126;37.876;2023-03-26T05:07:21;98643.75;;;3.06;71.43
67842;BME280;54642;59.126;37.876;2023-03-26T05:09:59;98659.09;;;3.11;71.35
67842;BME280;54642;59.126;37.876;2023-03-26T05:12:34;98652.31;;;3.20;71.46
67842;BME280;54642;59.126;37.876;2023-03-26T05:15:10;98660.88;;;3.39;71.35
67842;BME280;54642;59.126;37.876;2023-03-26T05:17:56;98650.63;;;3.39;71.19
67842;BME280;54642;59.126;37.876;2023-03-26T05:20:29;98663.47;;;3.55;71.13
67842;BME280;54642;59.126;37.876;2023-03-26T05:22:56;98668.56;;;3.61;71.04
67842;BME280;54642;59.126;37.876;2023-03-26T05:25:30;98601.97;;;3.32;70.96
67842;BME280;54642;59.126;37.876;2023-03-26T05:27:57;98662.59;;;3.80;71.03
67842;BME280;54642;59.126;37.876;2023-03-26T05:30:28;98608.81;;;3.60;70.87
67842;BME280;54642;59.126;37.876;2023-03-26T05:32:58;98666.84;;;4.11;70.64
67842;BME280;54642;59.126;37.876;2023-03-26T05:35:29;98665.13;;;4.28;70.28
67842;BME280;54642;59.126;37.876;2023-03-26T05:37:56;98603.63;;;4.05;69.72
67842;BME280;54642;59.126;37.876;2023-03-26T05:40:23;98611.31;;;4.19;69.93
67842;BME280;54642;59.126;37.876;2023-03-26T05:42:55;98649.50;;;4.94;70.20
67842;BME280;54642;59.126;37.876;2023-03-26T05:45:32;98655.97;;;5.57;68.80
67842;BME280;54642;59.126;37.876;2023-03-26T05:48:06;98652.97;;;6.09;68.64
67842;BME280;54642;59.126;37.876;2023-03-26T05:50:32;98653.31;;;6.59;67.37
67842;BME280;54642;59.126;37.876;2023-03-26T05:52:59;98591.66;;;6.52;66.27
67842;BME280;54642;59.126;37.876;2023-03-26T05:56:00;98622.31;;;6.68;65.74
67842;BME280;54642;59.126;37.876;2023-03-26T05:58:45;98637.41;;;6.99;66.04
67842;BME280;54642;59.126;37.876;2023-03-26T06:01:41;98646.41;;;7.30;65.60
67842;BME280;54642;59.126;37.876;2023-03-26T06:04:26;98644.69;;;7.32;65.11
67842;BME280;54642;59.126;37.876;2023-03-26T06:07:11;98652.41;;;7.32;65.05
67842;BME280;54642;59.126;37.876;2023-03-26T06:09:41;98645.56;;;7.29;64.61
67842;BME280;54642;59.126;37.876;2023-03-26T06:12:09;98635.44;;;7.15;65.13
67842;BME280;54642;59.126;37.876;2023-03-26T06:14:36;98646.78;;;7.62;65.48
67842;BME280;54642;59.126;37.876;2023-03-26T06:17:12;98630.97;;;7.84;64.41
67842;BME280;54642;59.126;37.876;2023-03-26T06:19:56;98640.66;;;7.70;63.72
67842;BME280;54642;59.126;37.876;2023-03-26T06:22:32;98645.91;;;7.63;64.25
67842;BME280;54642;59.126;37.876;2023-03-26T06:25:19;98655.22;;;7.71;64.25
67842;BME280;54642;59.126;37.876;2023-03-26T06:28:03;98641.53;;;7.67;63.98
67842;BME280;54642;59.126;37.876;2023-03-26T06:30:35;98644.69;;;7.86;63.79
67842;BME280;54642;59.126;37.876;2023-03-26T06:33:18;98631.28;;;8.15;63.31
67842;BME280;54642;59.126;37.876;2023-03-26T06:35:48;98629.44;;;8.22;62.95
67842;BME280;54642;59.126;37.876;2023-03-26T06:38:15;98635.50;;;8.21;63.15
67842;BME280;54642;59.126;37.876;2023-03-26T06:40:41;98636.50;;;8.12;62.72
67842;BME280;54642;59.126;37.876;2023-03-26T06:43:21;98636.75;;;8.47;62.83
67842;BME280;54642;59.126;37.876;2023-03-26T06:46:14;98623.44;;;8.67;62.58
67842;BME280;54642;59.126;37.876;2023-03-26T06:48:59;98624.03;;;8.80;62.21
67842;BME280;54642;59.126;37.876;2023-03-26T06:51:44;98568.84;;;8.42;61.61
67842;BME280;54642;59.126;37.876;2023-03-26T06:54:29;98633.19;;;8.54;61.72
67842;BME280;54642;59.126;37.876;2023-03-26T06:57:02;98633.13;;;8.57;61.92
67842;BME280;54642;59.126;37.876;2023-03-26T06:59:54;98569.78;;;8.37;62.17
67842;BME280;54642;59.126;37.876;2023-03-26T07:02:38;98623.19;;;9.20;61.63
67842;BME280;54642;59.126;37.876;2023-03-26T07:05:23;98623.97;;;9.23;60.92
67842;BME280;54642;59.126;37.876;2023-03-26T07:08:07;98614.66;;;9.16;61.09
67842;BME280;54642;59.126;37.876;2023-03-26T07:11:11;98610.31;;;9.18;61.39
67842;BME280;54642;59.126;37.876;2023-03-26T07:14:04;98569.03;;;9.13;61.15
67842;BME280;54642;59.126;37.876;2023-03-26T07:17:05;98609.38;;;9.58;61.07
67842;BME280;54642;59.126;37.876;2023-03-26T07:19:51;98608.66;;;9.87;60.54
67842;BME280;54642;59.126;37.876;2023-03-26T07:22:23;98517.47;;;9.45;60.39
67842;BME280;54642;59.126;37.876;2023-03-26T07:25:05;98598.19;;;9.92;59.81
67842;BME280;54642;59.126;37.876;2023-03-26T07:28:12;98603.59;;;9.83;59.85
67842;BME280;54642;59.126;37.876;2023-03-26T07:31:24;98597.88;;;9.70;59.85
67842;BME280;54642;59.126;37.876;2023-03-26T07:41:00;98602.50;;;9.91;59.48
67842;BME280;54642;59.126;37.876;2023-03-26T07:46:57;98596.88;;;9.76;59.71
67842;BME280;54642;59.126;37.876;2023-03-26T07:49:35;98582.78;;;9.87;59.58
67842;BME280;54642;59.126;37.876;2023-03-26T07:52:21;98564.69;;;9.87;59.13
67842;BME280;54642;59.126;37.876;2023-03-26T07:54:54;98597.03;;;10.04;59.54
67842;BME280;54642;59.126;37.876;2023-03-26T07:58:13;98606.31;;;10.11;59.28
67842;BME280;54642;59.126;37.876;2023-03-26T08:06:37;98601.88;;;10.16;59.14
67842;BME280;54642;59.126;37.876;2023-03-26T08:12:32;98594.06;;;10.18;58.80
67842;BME280;54642;59.126;37.876;2023-03-26T08:15:17;98543.81;;;9.93;59.08
67842;BME280;54642;59.126;37.876;2023-03-26T08:18:11;98533.81;;;10.13;58.54
67842;BME280;54642;59.126;37.876;2023-03-26T08:20:50;98577.06;;;10.72;58.26
67842;BME280;54642;59.126;37.876;2023-03-26T08:23:30;98599.38;;;11.05;57.66
67842;BME280;54642;59.126;37.876;2023-03-26T08:26:12;98594.09;;;10.80;57.05
67842;BME280;54642;59.126;37.876;2023-03-26T08:31:34;98594.44;;;10.96;58.35
67842;BME280;54642;59.126;37.876;2023-03-26T08:34:00;98594.38;;;10.99;58.23
67842;BME280;54642;59.126;37.876;2023-03-26T08:36:26;98592.94;;;11.17;57.44
67842;BME280;54642;59.126;37.876;2023-03-26T08:38:53;98577.69;;;11.36;57.28
67842;BME280;54642;59.126;37.876;2023-03-26T08:55:48;98532.78;;;10.79;56.46
67842;BME280;54642;59.126;37.876;2023-03-26T08:58:32;98579.72;;;10.98;56.71
67842;BME280;54642;59.126;37.876;2023-03-26T09:26:23;98561.41;;;10.45;57.11
67842;BME280;54642;59.126;37.876;2023-03-26T09:29:02;98568.81;;;10.59;56.53
67842;BME280;54642;59.126;37.876;2023-03-26T09:34:57;98564.44;;;10.89;56.76
67842;BME280;54642;59.126;37.876;2023-03-26T09:40:23;98553.34;;;11.12;55.81
67842;BME280;54642;59.126;37.876;2023-03-26T09:48:56;98554.69;;;10.97;55.70
67842;BME280;54642;59.126;37.876;2023-03-26T09:59:53;98543.47;;;10.68;55.50
67842;BME280;54642;59.126;37.876;2023-03-26T10:02:42;98549.78;;;10.58;56.61
67842;BME280;54642;59.126;37.876;2023-03-26T10:10:54;98479.56;;;10.67;55.91
67842;BME280;54642;59.126;37.876;2023-03-26T10:13:27;98467.38;;;10.71;55.67
67842;BME280;54642;59.126;37.876;2023-03-26T10:32:35;98509.75;;;10.98;55.49
67842;BME280;54642;59.126;37.876;2023-03-26T10:38:30;98503.19;;;10.86;55.81
67842;BME280;54642;59.126;37.876;2023-03-26T10:41:29;98502.00;;;10.68;55.83
67842;BME280;54642;59.126;37.876;2023-03-26T10:44:23;98470.25;;;10.62;56.08
67842;BME280;54642;59.126;37.876;2023-03-26T10:47:05;98479.09;;;10.83;55.57
67842;BME280;54642;59.126;37.876;2023-03-26T10:52:20;98496.63;;;11.03;55.35
67842;BME280;54642;59.126;37.876;2023-03-26T10:55:06;98445.84;;;10.69;54.91
67842;BME280;54642;59.126;37.876;2023-03-26T11:00:23;98491.44;;;11.03;54.81
67842;BME280;54642;59.126;37.876;2023-03-26T11:19:26;98474.09;;;11.57;54.29
67842;BME280;54642;59.126;37.876;2023-03-26T11:25:05;98462.41;;;11.45;54.00
67842;BME280;54642;59.126;37.876;2023-03-26T11:33:14;98453.47;;;11.54;54.21
67842;BME280;54642;59.126;37.876;2023-03-26T11:35:45;98448.41;;;11.74;53.62
67842;BME280;54642;59.126;37.876;2023-03-26T11:40:51;98449.38;;;11.97;53.63
67842;BME280;54642;59.126;37.876;2023-03-26T11:43:44;98421.81;;;11.93;53.26
67842;BME280;54642;59.126;37.876;2023-03-26T11:46:16;98443.22;;;11.99;52.95
67842;BME280;54642;59.126;37.876;2023-03-26T11:48:49;98443.00;;;11.80;53.16
67842;BME280;54642;59.126;37.876;2023-03-26T11:51:30;98451.09;;;11.71;53.20
67842;BME280;54642;59.126;37.876;2023-03-26T11:54:00;98463.56;;;11.61;53.87
67842;BME280;54642;59.126;37.876;2023-03-26T11:57:04;98437.22;;;11.49;53.69
67842;BME280;54642;59.126;37.876;2023-03-26T12:04:39;98444.38;;;10.60;54.73
67842;BME280;54642;59.126;37.876;2023-03-26T12:09:56;98441.88;;;9.68;55.92
67842;BME280;54642;59.126;37.876;2023-03-26T12:12:28;98453.75;;;9.42;56.21
67842;BME280;54642;59.126;37.876;2023-03-26T12:14:56;98437.72;;;9.29;56.39
67842;BME280;54642;59.126;37.876;2023-03-26T12:17:43;98438.19;;;9.44;56.90
67842;BME280;54642;59.126;37.876;2023-03-26T12:20:31;98433.75;;;9.49;56.60
67842;BME280;54642;59.126;37.876;2023-03-26T12:23:03;98426.66;;;9.57;56.42
67842;BME280;54642;59.126;37.876;2023-03-26T12:25:36;98437.44;;;9.73;56.61
67842;BME280;54642;59.126;37.876;2023-03-26T12:30:51;98428.25;;;9.61;57.02
67842;BME280;54642;59.126;37.876;2023-03-26T12:33:33;98391.41;;;9.84;56.55
67842;BME280;54642;59.126;37.876;2023-03-26T12:38:41;98425.31;;;10.35;56.39
67842;BME280;54642;59.126;37.876;2023-03-26T12:41:12;98448.19;;;10.50;55.75
67842;BME280;54642;59.126;37.876;2023-03-26T12:46:35;98425.06;;;10.71;56.01
67842;BME280;54642;59.126;37.876;2023-03-26T12:49:04;98394.50;;;10.55;55.54
67842;BME280;54642;59.126;37.876;2023-03-26T12:51:50;98429.09;;;10.81;55.37
67842;BME280;54642;59.126;37.876;2023-03-26T13:05:44;98435.00;;;11.11;55.81
67842;BME280;54642;59.126;37.876;2023-03-26T13:14:19;98431.31;;;10.07;56.34
67842;BME280;54642;59.126;37.876;2023-03-26T13:17:14;98399.09;;;9.56;56.83
67842;BME280;54642;59.126;37.876;2023-03-26T13:19:59;98374.53;;;9.40;57.46
67842;BME280;54642;59.126;37.876;2023-03-26T13:38:48;98404.44;;;9.15;57.82
67842;BME280;54642;59.126;37.876;2023-03-26T13:49:30;98389.06;;;9.12;58.00
67842;BME280;54642;59.126;37.876;2023-03-26T13:54:56;98391.50;;;9.17;58.07
67842;BME280;54642;59.126;37.876;2023-03-26T13:57:32;98379.53;;;9.14;58.28
67842;BME280;54642;59.126;37.876;2023-03-26T14:00:15;98387.31;;;9.13;58.39
67842;BME280;54642;59.126;37.876;2023-03-26T14:02:57;98351.97;;;8.81;58.27
67842;BME280;54642;59.126;37.876;2023-03-26T14:05:38;98358.81;;;8.82;58.13
67842;BME280;54642;59.126;37.876;2023-03-26T14:08:16;98396.94;;;9.06;58.48
67842;BME280;54642;59.126;37.876;2023-03-26T14:11:01;98389.97;;;9.10;58.69
67842;BME280;54642;59.126;37.876;2023-03-26T14:16:15;98380.59;;;9.06;58.43
67842;BME280;54642;59.126;37.876;2023-03-26T14:21:50;98397.13;;;9.00;58.63
67842;BME280;54642;59.126;37.876;2023-03-26T14:33:10;98387.19;;;8.83;59.29
67842;BME280;54642;59.126;37.876;2023-03-26T14:38:45;98393.09;;;8.88;58.85
67842;BME280;54642;59.126;37.876;2023-03-26T14:41:28;98345.50;;;8.64;58.98
67842;BME280;54642;59.126;37.876;2023-03-26T14:44:12;98388.75;;;8.89;58.85
67842;BME280;54642;59.126;37.876;2023-03-26T14:52:52;98367.38;;;8.84;59.03
67842;BME280;54642;59.126;37.876;2023-03-26T14:59:19;98381.19;;;8.83;58.54
67842;BME280;54642;59.126;37.876;2023-03-26T15:01:27;98306.66;;;8.31;58.87
67842;BME280;54642;59.126;37.876;2023-03-26T15:10:09;98366.44;;;8.52;59.20
67842;BME280;54642;59.126;37.876;2023-03-26T15:18:37;98333.50;;;8.23;59.54
67842;BME280;54642;59.126;37.876;2023-03-26T15:30:21;98339.88;;;8.08;60.00
67842;BME280;54642;59.126;37.876;2023-03-26T15:41:23;98364.88;;;8.06;60.13
67842;BME280;54642;59.126;37.876;2023-03-26T15:46:53;98354.75;;;7.96;60.07
67842;BME280;54642;59.126;37.876;2023-03-26T15:49:40;98359.09;;;7.94;60.26
67842;BME280;54642;59.126;37.876;2023-03-26T16:03:43;98354.81;;;7.93;60.47
67842;BME280;54642;59.126;37.876;2023-03-26T16:11:53;98354.75;;;7.96;60.49
67842;BME280;54642;59.126;37.876;2023-03-26T16:14:22;98347.03;;;7.96;60.69
67842;BME280;54642;59.126;37.876;2023-03-26T16:21:59;98284.00;;;7.69;60.18
67842;BME280;54642;59.126;37.876;2023-03-26T16:24:39;98319.59;;;7.92;60.19
67842;BME280;54642;59.126;37.876;2023-03-26T16:27:08;98351.75;;;8.15;60.07
67842;BME280;54642;59.126;37.876;2023-03-26T16:30:24;98353.38;;;8.19;60.20
67842;BME280;54642;59.126;37.876;2023-03-26T16:32:53;98343.06;;;8.19;59.97
67842;BME280;54642;59.126;37.876;2023-03-26T16:38:24;98307.44;;;7.97;60.08
67842;BME280;54642;59.126;37.876;2023-03-26T16:41:00;98350.88;;;8.16;60.07
67842;BME280;54642;59.126;37.876;2023-03-26T16:43:44;98355.94;;;8.20;60.14
67842;BME280;54642;59.126;37.876;2023-03-26T16:54:56;98340.06;;;8.00;60.44
67842;BME280;54642;59.126;37.876;2023-03-26T16:57:47;98297.59;;;7.76;60.56
67842;BME280;54642;59.126;37.876;2023-03-26T17:00:46;98346.03;;;8.02;60.64
67842;BME280;54642;59.126;37.876;2023-03-26T17:03:31;98352.94;;;8.01;60.76
67842;BME280;54642;59.126;37.876;2023-03-26T17:08:52;98321.28;;;7.93;60.66
67842;BME280;54642;59.126;37.876;2023-03-26T17:17:28;98344.91;;;8.14;61.40
67842;BME280;54642;59.126;37.876;2023-03-26T17:20:00;98331.81;;;8.23;60.71
67842;BME280;54642;59.126;37.876;2023-03-26T17:23:42;98243.38;;;7.79;60.63
67842;BME280;54642;59.126;37.876;2023-03-26T17:26:03;98325.34;;;8.43;60.66
67842;BME280;54642;59.126;37.876;2023-03-26T17:31:34;98326.91;;;8.50;60.51
67842;BME280;54642;59.126;37.876;2023-03-26T17:37:03;98320.31;;;8.35;60.51
67842;BME280;54642;59.126;37.876;2023-03-26T17:42:27;98322.91;;;8.35;60.70
67842;BME280;54642;59.126;37.876;2023-03-26T17:45:19;98318.66;;;8.34;60.55
67842;BME280;54642;59.126;37.876;2023-03-26T17:51:16;98316.75;;;8.40;60.63
67842;BME280;54642;59.126;37.876;2023-03-26T17:53:43;98312.81;;;8.26;60.71
67842;BME280;54642;59.126;37.876;2023-03-26T17:56:15;98258.66;;;7.87;60.47
67842;BME280;54642;59.126;37.876;2023-03-26T17:58:49;98309.94;;;8.00;60.77
67842;BME280;54642;59.126;37.876;2023-03-26T18:01:39;98243.06;;;7.55;60.77
67842;BME280;54642;59.126;37.876;2023-03-26T18:04:20;98311.94;;;7.89;60.99
67842;BME280;54642;59.126;37.876;2023-03-26T18:10:21;98311.34;;;7.76;61.10
67842;BME280;54642;59.126;37.876;2023-03-26T18:18:23;98298.06;;;7.53;61.45
67842;BME280;54642;59.126;37.876;2023-03-26T18:20:51;98269.34;;;7.31;61.61
67842;BME280;54642;59.126;37.876;2023-03-26T18:23:29;98273.63;;;7.32;61.73
67842;BME280;54642;59.126;37.876;2023-03-26T18:28:43;98306.56;;;7.58;61.74
67842;BME280;54642;59.126;37.876;2023-03-26T18:33:47;98248.19;;;7.15;61.66
67842;BME280;54642;59.126;37.876;2023-03-26T18:36:15;98291.47;;;7.41;61.71
67842;BME280;54642;59.126;37.876;2023-03-26T18:38:44;98301.81;;;7.38;61.87
67842;BME280;54642;59.126;37.876;2023-03-26T18:41:28;98283.16;;;7.27;62.08
67842;BME280;54642;59.126;37.876;2023-03-26T18:44:00;98263.78;;;7.09;61.82
67842;BME280;54642;59.126;37.876;2023-03-26T18:46:26;98288.41;;;7.22;62.23
67842;BME280;54642;59.126;37.876;2023-03-26T18:48:52;98295.19;;;7.26;62.34
67842;BME280;54642;59.126;37.876;2023-03-26T18:51:20;98231.50;;;6.91;62.17
67842;BME280;54642;59.126;37.876;2023-03-26T18:54:07;98263.81;;;7.05;62.14
67842;BME280;54642;59.126;37.876;2023-03-26T18:56:42;98282.63;;;7.11;62.28
67842;BME280;54642;59.126;37.876;2023-03-26T18:59:27;98296.44;;;7.06;62.24
67842;BME280;54642;59.126;37.876;2023-03-26T19:02:02;98254.91;;;6.78;62.39
67842;BME280;54642;59.126;37.876;2023-03-26T19:04:30;98272.81;;;6.84;62.41
67842;BME280;54642;59.126;37.876;2023-03-26T19:06:59;98284.78;;;6.89;62.58
67842;BME280;54642;59.126;37.876;2023-03-26T19:09:27;98297.53;;;6.93;62.71
67842;BME280;54642;59.126;37.876;2023-03-26T19:12:12;98293.34;;;6.89;62.78
67842;BME280;54642;59.126;37.876;2023-03-26T19:15:10;98217.69;;;6.49;62.79
67842;BME280;54642;59.126;37.876;2023-03-26T19:18:01;98283.03;;;6.89;62.71
67842;BME280;54642;59.126;37.876;2023-03-26T19:21:00;98272.03;;;6.79;62.52
67842;BME280;54642;59.126;37.876;2023-03-26T19:23:35;98260.28;;;6.66;62.98
67842;BME280;54642;59.126;37.876;2023-03-26T19:26:04;98294.31;;;6.82;62.93
67842;BME280;54642;59.126;37.876;2023-03-26T19:33:36;98282.25;;;6.85;63.01
67842;BME280;54642;59.126;37.876;2023-03-26T19:36:14;98281.28;;;6.90;63.13
67842;BME280;54642;59.126;37.876;2023-03-26T19:38:47;98278.72;;;6.90;63.46
67842;BME280;54642;59.126;37.876;2023-03-26T19:41:25;98272.81;;;6.83;63.17